Airfield :
LOGIN :

Register | Disclaimer

   EN    FR    IT 

 










Legend :    VFR   Marginal VFR   IFR   Intensive IFR   Very Intensive IFR
Visi :
Ceiling :
>= 8 km
>= 3000ft
5 to 8 km
1000 to 3000 ft
1500m to 5 km
500 to 1000 ft
800 to 1500m
200 to 500 ft
< 800m
< 200 ft
Symbols :   Thunderstorms  Fog  Heavy snow  Heavy precipitations  Wind > 20 kt
SIGMETs :     Misc.  Thunderstorms  Icing  Turbulence  Mountain Waves  Volcanic Ashes







- Airport Elevation : 408 ft
- IATA code : FKB


EDSB - Karlsruhe Baden Baden

CURRENT METAR :
  • 182250Z AUTO 20013KT 9999 -SHRA BKN029 OVC038 04/03 Q1020

EXPIRED METARs :
  • 182220Z 21013KT 9999 -SHRA BKN032 OVC039 05/02 Q1021
  • 182150Z 22012KT 9999 -DZ BKN034 OVC057 05/02 Q1021
  • 182120Z 21010KT 9999 BKN048 OVC061 05/01 Q1021
  • 182050Z 21010KT 9999 FEW049 SCT062 05/01 Q1021
  • 182020Z 20010KT CAVOK 05/01 Q1021

TAF TAF EDSB
Valid from the 18 at 18:00 until the 19 at 18:00 UTC


181700Z 1818/1918 22010KT 9999 BKN035
TEMPO 1822/1905 27015G25KT 4000 SHRA BKN012 BKN020TCU
PROB30
TEMPO 1905/1909 2500 -DZRA BKN008
No reported NOTAMs for that airfield.



MET'MAP, your aeronautical weather chart ! - Copyright ORBIFLY December 2007 - Disclaimer

ORBIFLY MET'MAP TEAM :

Programming & Development : Alexandra Zaïnal
Concept & Development : Baudouin d'Aumeries
Co-Development & Prog : Marc-Olivier Méhu
Technical & hardware support : Manuel Goepfert

Contact : metmap@orbifly.com




SOURCES & CREDITS :

   NOAA